createdAt,value
2019-04-26T00:01:38.269Z,18.23
2019-04-26T00:04:07.720Z,18.22
2019-04-26T00:06:36.710Z,18.19
2019-04-26T00:09:18.996Z,18.19
2019-04-26T00:11:51.803Z,18.22
2019-04-26T00:14:36.489Z,18.23
2019-04-26T00:17:15.501Z,18.25
2019-04-26T00:19:44.143Z,18.26
2019-04-26T00:22:13.010Z,18.27
2019-04-26T00:24:41.611Z,18.26
2019-04-26T00:27:11.258Z,18.24
2019-04-26T00:29:39.679Z,18.24
2019-04-26T00:32:08.224Z,18.24
2019-04-26T00:34:36.429Z,18.22
2019-04-26T00:37:04.660Z,18.20
2019-04-26T00:39:32.887Z,18.16
2019-04-26T00:42:01.109Z,18.12
2019-04-26T00:44:29.320Z,18.06
2019-04-26T00:46:57.554Z,17.99
2019-04-26T00:49:26.062Z,17.88
2019-04-26T00:51:54.262Z,17.79
2019-04-26T00:54:22.471Z,17.72
2019-04-26T00:56:50.685Z,17.66
2019-04-26T00:59:18.903Z,17.63
2019-04-26T01:01:48.792Z,17.58
2019-04-26T01:04:17.147Z,17.53
2019-04-26T01:06:47.271Z,17.49
2019-04-26T01:09:16.074Z,17.45
2019-04-26T01:11:44.710Z,17.39
2019-04-26T01:14:13.411Z,17.36
2019-04-26T01:16:41.627Z,17.34
2019-04-26T01:19:09.922Z,17.32
2019-04-26T01:21:41.037Z,17.29
2019-04-26T01:24:09.234Z,17.26
2019-04-26T01:26:37.458Z,17.26
2019-04-26T01:29:12.297Z,17.25
2019-04-26T01:31:49.310Z,17.27
2019-04-26T01:34:17.778Z,17.25
2019-04-26T01:36:47.221Z,17.20
2019-04-26T01:39:19.728Z,17.13
2019-04-26T01:42:08.348Z,17.08
2019-04-26T01:44:44.033Z,17.07
2019-04-26T01:47:12.930Z,17.12
2019-04-26T01:49:41.144Z,17.18
2019-04-26T01:52:10.398Z,17.18
2019-04-26T01:54:41.824Z,17.16
2019-04-26T01:57:09.986Z,17.13
2019-04-26T01:59:40.119Z,17.10
2019-04-26T02:02:23.700Z,17.06
2019-04-26T02:04:53.912Z,17.04
2019-04-26T02:07:41.548Z,17.01
2019-04-26T02:10:18.161Z,16.99
2019-04-26T02:12:47.008Z,16.95
2019-04-26T02:15:15.791Z,16.91
2019-04-26T02:17:44.578Z,16.90
2019-04-26T02:20:13.520Z,16.87
2019-04-26T02:22:44.169Z,16.83
2019-04-26T02:25:12.441Z,16.76
2019-04-26T02:27:40.617Z,16.71
2019-04-26T02:30:09.300Z,16.68
2019-04-26T02:32:37.717Z,16.64
2019-04-26T02:35:06.667Z,16.61
2019-04-26T02:37:36.880Z,16.61
2019-04-26T02:40:07.564Z,16.63
2019-04-26T02:42:39.552Z,16.60
2019-04-26T02:45:21.696Z,16.59
2019-04-26T02:47:51.551Z,16.57
2019-04-26T02:50:21.402Z,16.52
2019-04-26T02:52:52.875Z,16.47
2019-04-26T02:55:48.758Z,16.43
2019-04-26T02:58:17.004Z,16.41
2019-04-26T03:00:45.256Z,16.42
2019-04-26T03:03:13.461Z,16.40
2019-04-26T03:05:42.053Z,16.38
2019-04-26T03:08:12.518Z,16.37
2019-04-26T03:10:43.439Z,16.37
2019-04-26T03:13:15.026Z,16.39
2019-04-26T03:15:50.310Z,16.38
2019-04-26T03:18:36.888Z,16.36
2019-04-26T03:21:17.456Z,16.35
2019-04-26T03:24:13.245Z,16.33
2019-04-26T03:27:16.575Z,16.32
2019-04-26T03:30:19.382Z,16.34
2019-04-26T03:32:53.772Z,16.37
2019-04-26T03:35:52.449Z,16.42
2019-04-26T03:38:40.135Z,16.45
2019-04-26T03:41:38.335Z,16.44
2019-04-26T03:44:21.636Z,16.45
2019-04-26T03:46:54.933Z,16.44
2019-04-26T03:49:45.989Z,16.40
2019-04-26T03:52:26.646Z,16.38
2019-04-26T03:54:58.055Z,16.33
2019-04-26T03:57:41.821Z,16.31
2019-04-26T04:00:27.614Z,16.28
2019-04-26T04:03:15.623Z,16.25
2019-04-26T04:05:48.103Z,16.20
2019-04-26T04:08:19.582Z,16.16
2019-04-26T04:10:51.207Z,16.12
2019-04-26T04:13:42.964Z,16.11
2019-04-26T04:16:16.306Z,16.09
2019-04-26T04:18:53.890Z,16.09
2019-04-26T04:21:42.674Z,16.02
2019-04-26T04:24:14.281Z,15.95
2019-04-26T04:27:04.299Z,15.93
2019-04-26T04:29:55.961Z,15.90
2019-04-26T04:32:32.963Z,15.84
2019-04-26T04:35:06.762Z,15.72
2019-04-26T04:38:01.630Z,15.65
2019-04-26T04:40:18.614Z,15.72
2019-04-26T04:43:12.848Z,15.77
2019-04-26T04:45:45.708Z,15.84
2019-04-26T04:48:22.823Z,16.12
2019-04-26T04:51:17.242Z,16.13
2019-04-26T04:54:09.643Z,16.01
2019-04-26T04:57:03.270Z,15.96
2019-04-26T04:59:46.385Z,16.22
2019-04-26T05:02:43.927Z,16.15
2019-04-26T05:05:43.478Z,15.95
2019-04-26T05:08:21.564Z,15.73
2019-04-26T05:11:08.309Z,15.59
2019-04-26T05:13:46.372Z,15.46
2019-04-26T05:16:38.124Z,15.39
2019-04-26T05:19:27.881Z,15.33
2019-04-26T05:22:25.359Z,15.28
2019-04-26T05:25:40.302Z,15.26
2019-04-26T05:28:15.456Z,15.24
2019-04-26T05:31:12.727Z,15.25
2019-04-26T05:33:47.749Z,15.28
2019-04-26T05:36:32.254Z,15.33
2019-04-26T05:39:08.556Z,15.36
2019-04-26T05:41:57.869Z,15.38
2019-04-26T05:45:04.461Z,15.46
2019-04-26T05:48:02.986Z,15.58
2019-04-26T05:50:58.933Z,15.68
2019-04-26T05:54:01.475Z,15.73
2019-04-26T05:56:56.266Z,15.86
2019-04-26T05:59:31.349Z,16.43
2019-04-26T06:02:15.648Z,17.43
2019-04-26T06:05:06.633Z,17.83
2019-04-26T06:07:48.573Z,18.52
2019-04-26T06:10:37.836Z,18.64
2019-04-26T06:13:19.600Z,18.22
2019-04-26T06:16:16.344Z,17.73
2019-04-26T06:19:16.738Z,17.36
2019-04-26T06:22:14.195Z,17.18
2019-04-26T06:25:09.008Z,17.42
2019-04-26T06:27:58.812Z,17.85
2019-04-26T06:30:45.706Z,18.06
2019-04-26T06:33:32.407Z,18.24
2019-04-26T06:36:04.428Z,18.31
2019-04-26T06:38:44.309Z,18.28
2019-04-26T06:41:25.705Z,18.17
2019-04-26T06:44:07.104Z,17.98
2019-04-26T06:46:52.563Z,18.04
2019-04-26T06:49:33.785Z,18.35
2019-04-26T06:52:05.169Z,18.59
2019-04-26T06:54:45.567Z,18.61
2019-04-26T06:57:36.881Z,18.68
2019-04-26T07:00:19.807Z,18.84
2019-04-26T07:03:09.669Z,18.32
2019-04-26T07:05:46.137Z,18.65
2019-04-26T07:08:17.720Z,18.38
2019-04-26T07:11:01.017Z,18.37
2019-04-26T07:13:49.012Z,18.35
2019-04-26T07:16:42.989Z,18.42
2019-04-26T07:19:20.073Z,18.43
2019-04-26T07:22:21.040Z,18.63
2019-04-26T07:25:19.991Z,18.92
2019-04-26T07:28:06.831Z,19.22
2019-04-26T07:30:39.299Z,19.37
2019-04-26T07:33:18.575Z,19.46
2019-04-26T07:36:05.576Z,19.50
2019-04-26T07:39:13.752Z,19.49
2019-04-26T07:41:57.600Z,19.40
2019-04-26T07:44:30.728Z,19.16
2019-04-26T07:47:08.524Z,19.07
2019-04-26T07:50:04.048Z,19.07
2019-04-26T07:52:36.231Z,19.08
2019-04-26T07:55:25.967Z,19.11
2019-04-26T07:58:20.885Z,19.29
2019-04-26T08:00:59.656Z,19.49
2019-04-26T08:03:35.542Z,19.54
2019-04-26T08:06:21.426Z,19.59
2019-04-26T08:09:03.186Z,19.69
2019-04-26T08:11:38.119Z,19.60
2019-04-26T08:14:11.171Z,19.61
2019-04-26T08:17:14.859Z,19.59
2019-04-26T08:20:02.326Z,19.65
2019-04-26T08:22:33.733Z,19.74
2019-04-26T08:25:02.016Z,19.69
2019-04-26T08:27:30.227Z,19.59
2019-04-26T08:29:59.452Z,19.55
2019-04-26T08:32:33.502Z,19.53
2019-04-26T08:35:08.138Z,19.60
2019-04-26T08:37:51.682Z,19.59
2019-04-26T08:40:28.268Z,19.65
2019-04-26T08:43:07.270Z,19.59
2019-04-26T08:45:44.103Z,19.49
2019-04-26T08:48:32.327Z,19.46
2019-04-26T08:51:04.926Z,19.50
2019-04-26T08:53:33.153Z,19.61
2019-04-26T08:56:01.656Z,19.59
2019-04-26T08:58:29.943Z,19.48
2019-04-26T09:01:15.962Z,19.45
2019-04-26T09:03:46.726Z,19.56
2019-04-26T09:06:16.590Z,19.74
2019-04-26T09:08:45.124Z,19.84
2019-04-26T09:11:25.333Z,19.84
2019-04-26T09:13:44.867Z,19.82
2019-04-26T09:16:15.118Z,19.93
2019-04-26T09:18:48.088Z,20.11
2019-04-26T09:21:16.999Z,20.17
2019-04-26T09:24:01.629Z,20.21
2019-04-26T09:26:42.352Z,20.32
2019-04-26T09:29:18.038Z,20.44
2019-04-26T09:31:57.065Z,20.36
2019-04-26T09:34:29.851Z,20.55
2019-04-26T09:36:58.070Z,20.56
2019-04-26T09:39:26.742Z,20.46
2019-04-26T09:41:56.593Z,20.41
2019-04-26T09:44:27.410Z,20.47
2019-04-26T09:46:57.283Z,20.52
2019-04-26T09:49:30.160Z,20.68
2019-04-26T09:51:58.528Z,20.84
2019-04-26T09:54:27.115Z,20.78
2019-04-26T09:56:55.330Z,20.57
2019-04-26T09:59:23.550Z,20.54
2019-04-26T10:01:55.457Z,20.63
2019-04-26T10:04:21.681Z,20.61
2019-04-26T10:06:49.970Z,20.52
2019-04-26T10:09:21.326Z,20.44
2019-04-26T10:11:53.178Z,20.43
2019-04-26T10:14:32.244Z,20.64
2019-04-26T10:17:02.163Z,20.93
2019-04-26T10:19:47.327Z,21.08
2019-04-26T10:22:15.595Z,21.12
2019-04-26T10:24:43.859Z,21.08
2019-04-26T10:27:12.138Z,20.98
2019-04-26T10:29:40.427Z,20.76
2019-04-26T10:32:08.651Z,20.44
2019-04-26T10:34:36.835Z,20.16
2019-04-26T10:37:06.118Z,19.93
2019-04-26T10:39:36.905Z,19.74
2019-04-26T10:42:04.939Z,19.68
2019-04-26T10:44:35.820Z,19.52
2019-04-26T10:47:04.481Z,19.62
2019-04-26T10:49:46.396Z,19.49
2019-04-26T10:52:17.102Z,19.42
2019-04-26T10:54:46.904Z,19.39
2019-04-26T10:57:33.178Z,19.46
2019-04-26T11:00:03.050Z,19.75
2019-04-26T11:02:31.268Z,19.91
2019-04-26T11:04:59.485Z,19.93
2019-04-26T11:07:28.026Z,19.82
2019-04-26T11:09:56.295Z,19.64
2019-04-26T11:12:24.514Z,19.30
2019-04-26T11:14:53.394Z,19.06
2019-04-26T11:17:22.670Z,18.95
2019-04-26T11:19:51.289Z,18.86
2019-04-26T11:22:28.926Z,18.83
2019-04-26T11:24:53.427Z,18.81
2019-04-26T11:27:19.995Z,18.79
2019-04-26T11:29:53.822Z,18.85
2019-04-26T11:32:18.315Z,19.05
2019-04-26T11:34:46.852Z,19.17
2019-04-26T11:37:17.780Z,19.40
2019-04-26T11:39:45.013Z,19.64
2019-04-26T11:42:13.326Z,19.80
2019-04-26T11:44:44.449Z,20.00
2019-04-26T11:47:13.331Z,20.03
2019-04-26T11:49:42.960Z,19.99
2019-04-26T11:52:11.377Z,19.89
2019-04-26T11:54:39.592Z,19.82
2019-04-26T11:57:08.277Z,19.84
2019-04-26T11:59:38.434Z,19.83
2019-04-26T12:02:06.654Z,19.67
2019-04-26T12:04:42.451Z,19.61
2019-04-26T12:07:27.838Z,19.66
2019-04-26T12:10:05.838Z,19.72
2019-04-26T12:12:33.893Z,19.56
2019-04-26T12:15:03.960Z,19.46
2019-04-26T12:17:35.199Z,19.53
2019-04-26T12:20:02.416Z,19.76
2019-04-26T12:22:30.619Z,19.77
2019-04-26T12:24:58.834Z,19.76
2019-04-26T12:27:30.719Z,19.62
2019-04-26T12:29:57.303Z,19.46
2019-04-26T12:32:25.852Z,19.35
2019-04-26T12:34:54.048Z,19.31
2019-04-26T12:37:22.271Z,19.37
2019-04-26T12:39:50.777Z,19.37
2019-04-26T12:42:19.860Z,19.36
2019-04-26T12:44:58.710Z,19.37
2019-04-26T12:47:45.028Z,19.32
2019-04-26T12:50:13.713Z,19.25
2019-04-26T12:52:41.990Z,18.92
2019-04-26T12:55:13.740Z,19.23
2019-04-26T12:57:40.871Z,19.19
2019-04-26T13:00:12.029Z,19.19
2019-04-26T13:02:40.239Z,19.13
2019-04-26T13:05:08.933Z,19.08
2019-04-26T13:07:39.017Z,19.00
2019-04-26T13:10:15.054Z,18.47
2019-04-26T13:12:51.207Z,19.04
2019-04-26T13:16:07.599Z,18.90
2019-04-26T13:18:35.810Z,18.67
2019-04-26T13:21:04.491Z,18.43
2019-04-26T13:23:33.061Z,18.28
2019-04-26T13:26:01.701Z,18.13
2019-04-26T13:28:30.447Z,17.97
2019-04-26T13:31:02.229Z,17.84
2019-04-26T13:33:29.855Z,17.69
2019-04-26T13:36:05.142Z,17.54
2019-04-26T13:38:27.999Z,17.44
2019-04-26T13:40:59.693Z,17.37
2019-04-26T13:43:28.550Z,17.18
2019-04-26T13:45:59.720Z,17.18
2019-04-26T13:48:29.608Z,17.13
2019-04-26T13:51:01.384Z,17.11
2019-04-26T13:53:29.437Z,17.16
2019-04-26T13:55:58.397Z,17.20
2019-04-26T13:58:27.979Z,17.13
2019-04-26T14:00:56.455Z,17.01
2019-04-26T14:03:27.278Z,16.98
2019-04-26T14:05:54.946Z,17.05
2019-04-26T14:08:23.440Z,17.12
2019-04-26T14:10:51.649Z,17.19
2019-04-26T14:13:20.697Z,17.29
2019-04-26T14:15:52.036Z,17.33
2019-04-26T14:18:19.752Z,17.42
2019-04-26T14:20:48.293Z,17.48
2019-04-26T14:23:27.459Z,17.46
2019-04-26T14:26:06.983Z,17.46
2019-04-26T14:28:35.276Z,17.43
2019-04-26T14:31:03.503Z,17.30
2019-04-26T14:33:32.590Z,17.14
2019-04-26T14:36:01.111Z,17.03
2019-04-26T14:38:39.423Z,16.87
2019-04-26T14:41:04.195Z,16.74
2019-04-26T14:43:39.978Z,16.63
2019-04-26T14:45:59.305Z,16.59
2019-04-26T14:48:35.957Z,16.57
2019-04-26T14:51:07.438Z,16.51
2019-04-26T14:53:27.482Z,16.44
2019-04-26T14:55:55.710Z,16.43
2019-04-26T14:58:29.965Z,16.41
2019-04-26T15:01:03.167Z,16.28
2019-04-26T15:03:38.961Z,16.23
2019-04-26T15:06:23.312Z,16.21
2019-04-26T15:08:52.977Z,16.20
2019-04-26T15:11:22.952Z,16.18
2019-04-26T15:13:51.320Z,16.19
2019-04-26T15:16:22.150Z,16.32
2019-04-26T15:18:49.499Z,16.39
2019-04-26T15:21:17.691Z,16.37
2019-04-26T15:23:45.985Z,16.22
2019-04-26T15:26:14.209Z,16.09
2019-04-26T15:28:43.769Z,15.96
2019-04-26T15:31:13.107Z,15.88
2019-04-26T15:33:44.199Z,15.81
2019-04-26T15:36:14.485Z,15.78
2019-04-26T15:38:44.910Z,15.77
2019-04-26T15:41:33.081Z,15.81
2019-04-26T15:44:03.157Z,14.19
2019-04-26T15:46:48.655Z,15.83
2019-04-26T15:49:19.349Z,15.81
2019-04-26T15:51:47.941Z,15.74
2019-04-26T15:54:17.890Z,15.74
2019-04-26T15:56:49.295Z,15.73
2019-04-26T15:59:18.420Z,15.69
2019-04-26T16:01:49.174Z,15.66
2019-04-26T16:04:17.262Z,15.64
2019-04-26T16:06:45.854Z,15.63
2019-04-26T16:09:19.835Z,15.69
2019-04-26T16:11:49.497Z,15.87
2019-04-26T16:14:14.470Z,16.01
2019-04-26T16:16:43.038Z,15.94
2019-04-26T16:19:13.042Z,15.90
2019-04-26T16:21:42.548Z,15.98
2019-04-26T16:24:10.918Z,16.04
2019-04-26T16:26:44.596Z,16.07
2019-04-26T16:29:14.209Z,16.06
2019-04-26T16:31:47.276Z,16.09
2019-04-26T16:34:28.789Z,16.01
2019-04-26T16:36:57.219Z,15.97
2019-04-26T16:39:32.357Z,15.96
2019-04-26T16:41:59.205Z,16.01
2019-04-26T16:44:29.931Z,16.05
2019-04-26T16:47:01.453Z,16.04
2019-04-26T16:49:25.921Z,16.04
2019-04-26T16:52:01.936Z,16.04
2019-04-26T16:54:26.776Z,15.93
2019-04-26T16:56:58.855Z,15.83
2019-04-26T16:59:26.748Z,15.80
2019-04-26T17:01:54.237Z,15.80
2019-04-26T17:04:28.410Z,15.72
2019-04-26T17:06:53.045Z,15.57
2019-04-26T17:09:23.513Z,15.42
2019-04-26T17:11:52.353Z,15.23
2019-04-26T17:14:22.512Z,15.08
2019-04-26T17:16:53.255Z,14.95
2019-04-26T17:19:22.802Z,14.82
2019-04-26T17:22:03.724Z,14.70
2019-04-26T17:24:38.106Z,14.59
2019-04-26T17:27:09.765Z,14.44
2019-04-26T17:29:37.597Z,14.33
2019-04-26T17:32:09.241Z,14.24
2019-04-26T17:34:36.514Z,14.15
2019-04-26T17:37:09.914Z,14.07
2019-04-26T17:39:35.012Z,14.08
2019-04-26T17:42:03.598Z,14.01
2019-04-26T17:44:34.068Z,13.91
2019-04-26T17:47:02.361Z,13.80
2019-04-26T17:49:34.318Z,13.71
2019-04-26T17:52:01.937Z,13.63
2019-04-26T17:54:44.151Z,13.55
2019-04-26T17:57:04.268Z,13.47
2019-04-26T17:59:34.021Z,13.39
2019-04-26T18:02:01.330Z,13.32
2019-04-26T18:04:36.536Z,13.32
2019-04-26T18:07:03.843Z,13.28
2019-04-26T18:09:41.434Z,13.22
2019-04-26T18:12:03.376Z,13.17
2019-04-26T18:14:32.006Z,13.12
2019-04-26T18:17:04.374Z,13.07
2019-04-26T18:19:42.440Z,13.02
2019-04-26T18:22:24.554Z,12.99
2019-04-26T18:24:53.188Z,12.93
2019-04-26T18:27:21.833Z,12.84
2019-04-26T18:29:50.051Z,12.82
2019-04-26T18:32:18.364Z,12.79
2019-04-26T18:34:46.602Z,12.75
2019-04-26T18:37:14.832Z,12.70
2019-04-26T18:39:43.172Z,12.68
2019-04-26T18:42:11.629Z,12.68
2019-04-26T18:44:47.378Z,12.67
2019-04-26T18:47:22.315Z,12.63
2019-04-26T18:49:52.105Z,12.59
2019-04-26T18:52:23.308Z,12.58
2019-04-26T18:54:52.525Z,12.58
2019-04-26T18:57:21.060Z,12.58
2019-04-26T18:59:51.218Z,12.55
2019-04-26T19:02:21.344Z,12.51
2019-04-26T19:04:49.766Z,12.50
2019-04-26T19:07:31.028Z,12.48
2019-04-26T19:09:58.866Z,12.45
2019-04-26T19:12:18.436Z,12.42
2019-04-26T19:15:07.523Z,12.38
2019-04-26T19:17:43.548Z,12.36
2019-04-26T19:20:30.019Z,12.34
2019-04-26T19:22:59.601Z,12.31
2019-04-26T19:25:29.853Z,12.30
2019-04-26T19:27:58.914Z,12.28
2019-04-26T19:30:28.158Z,12.26
2019-04-26T19:32:56.684Z,12.25
2019-04-26T19:35:24.908Z,12.27
2019-04-26T19:37:53.133Z,12.29
2019-04-26T19:40:22.867Z,12.31
2019-04-26T19:42:57.031Z,12.32
2019-04-26T19:45:22.947Z,12.31
2019-04-26T19:47:55.880Z,12.30
2019-04-26T19:50:28.448Z,12.30
2019-04-26T19:53:16.620Z,12.30
2019-04-26T19:56:01.637Z,12.30
2019-04-26T19:58:32.081Z,12.30
2019-04-26T20:01:02.272Z,12.33
2019-04-26T20:03:32.017Z,12.34
2019-04-26T20:06:01.137Z,12.35
2019-04-26T20:08:29.831Z,12.34
2019-04-26T20:10:58.374Z,12.32
2019-04-26T20:13:26.599Z,12.28
2019-04-26T20:15:57.453Z,12.24
2019-04-26T20:18:25.234Z,12.22
2019-04-26T20:20:53.468Z,12.19
2019-04-26T20:23:22.855Z,12.18
2019-04-26T20:25:52.977Z,12.20
2019-04-26T20:28:22.765Z,12.23
2019-04-26T20:30:53.091Z,12.29
2019-04-26T20:33:22.432Z,12.30
2019-04-26T20:35:51.511Z,12.34
2019-04-26T20:38:20.069Z,12.36
2019-04-26T20:40:49.025Z,12.36
2019-04-26T20:43:24.377Z,12.34
2019-04-26T20:46:08.082Z,12.34
2019-04-26T20:48:17.481Z,12.37
2019-04-26T20:50:45.696Z,12.41
2019-04-26T20:53:14.942Z,12.40
2019-04-26T20:55:43.454Z,12.40
2019-04-26T20:58:11.925Z,12.38
2019-04-26T21:00:53.550Z,12.39
2019-04-26T21:03:23.018Z,12.41
2019-04-26T21:05:46.195Z,12.42
2019-04-26T21:08:12.358Z,12.42
2019-04-26T21:10:41.808Z,12.39
2019-04-26T21:13:12.085Z,12.34
2019-04-26T21:15:53.424Z,12.34
2019-04-26T21:18:12.331Z,12.35
2019-04-26T21:20:42.375Z,12.36
2019-04-26T21:23:12.912Z,12.38
2019-04-26T21:25:44.995Z,12.38
2019-04-26T21:28:23.738Z,12.38
2019-04-26T21:31:09.878Z,12.38
2019-04-26T21:33:39.754Z,12.37
2019-04-26T21:36:09.916Z,12.35
2019-04-26T21:38:45.766Z,12.35
2019-04-26T21:41:27.710Z,12.34
2019-04-26T21:43:55.920Z,12.32
2019-04-26T21:46:24.159Z,12.33
2019-04-26T21:48:53.447Z,12.29
2019-04-26T21:51:22.999Z,12.28
2019-04-26T21:53:52.970Z,12.28
2019-04-26T21:56:21.369Z,12.28
2019-04-26T21:58:49.891Z,12.28
2019-04-26T22:01:20.443Z,12.29
2019-04-26T22:03:54.297Z,12.28
2019-04-26T22:06:19.800Z,12.29
2019-04-26T22:09:04.752Z,12.28
2019-04-26T22:11:32.212Z,12.27
2019-04-26T22:14:03.062Z,12.26
2019-04-26T22:16:42.470Z,12.23
2019-04-26T22:19:32.527Z,12.21
2019-04-26T22:22:08.687Z,12.17
2019-04-26T22:24:38.541Z,12.16
2019-04-26T22:27:06.752Z,12.16
2019-04-26T22:29:35.261Z,12.15
2019-04-26T22:32:03.773Z,12.17
2019-04-26T22:34:32.326Z,12.19
2019-04-26T22:37:01.349Z,12.21
2019-04-26T22:39:32.581Z,12.24
2019-04-26T22:42:02.724Z,12.27
2019-04-26T22:44:41.411Z,12.27
2019-04-26T22:47:20.434Z,12.26
2019-04-26T22:49:48.879Z,12.25
2019-04-26T22:52:17.121Z,12.27
2019-04-26T22:54:46.652Z,12.29
2019-04-26T22:57:16.478Z,12.29
2019-04-26T22:59:49.955Z,12.25
2019-04-26T23:02:18.285Z,12.18
2019-04-26T23:04:45.582Z,12.17
2019-04-26T23:07:18.227Z,12.12
2019-04-26T23:09:45.750Z,12.10
2019-04-26T23:12:27.896Z,12.08
2019-04-26T23:15:13.354Z,12.06
2019-04-26T23:17:51.819Z,12.03
2019-04-26T23:20:25.098Z,12.04
2019-04-26T23:22:54.639Z,12.07
2019-04-26T23:25:23.824Z,12.07
2019-04-26T23:27:56.779Z,12.08
2019-04-26T23:30:23.133Z,12.10
2019-04-26T23:32:52.185Z,12.10
2019-04-26T23:35:21.487Z,12.08
2019-04-26T23:37:49.954Z,12.06
2019-04-26T23:40:20.690Z,12.07
2019-04-26T23:42:51.571Z,11.49
2019-04-26T23:45:18.093Z,12.12
2019-04-26T23:47:46.668Z,12.15
2019-04-26T23:50:14.894Z,12.17
2019-04-26T23:52:43.685Z,12.13
2019-04-26T23:55:13.480Z,12.13
2019-04-26T23:57:43.442Z,12.13
